Time;durP1;ratioP1;P1;durP2;ratioP2;P2;SDS_P1;SDS_P2;PMS_P1;PMS_P2;Temp;Humidity;BMP_temperature;BMP_pressure;BME280_temperature;BME280_humidity;BME280_pressure;Samples;Min_cycle;Max_cycle;Signal;HPM_P1;HPM_P2
2023/02/20 00:01:19;;;;;;;;;;;;;;;5.71;100.00;102512.41;5031163;28;19924;-65
2023/02/20 00:03:45;;;;;;;;;;;;;;;5.74;100.00;102513.09;5019802;28;19921;-64
2023/02/20 00:06:11;;;;;;;;;;;;;;;5.72;100.00;102507.13;5025159;28;19928;-65
2023/02/20 00:08:38;;;;;;;;;;;;;;;5.73;100.00;102506.19;5014870;28;19963;-65
2023/02/20 00:11:05;;;;;;;;;;;;;;;5.77;100.00;102498.25;5026428;28;19928;-65
2023/02/20 00:13:31;;;;;;;;;;;;;;;5.70;100.00;102482.94;5024493;28;19929;-65
2023/02/20 00:15:58;;;;;;;;;;;;;;;5.75;100.00;102483.53;5026184;28;19936;-64
2023/02/20 00:18:24;;;;;;;;;;;;;;;5.80;100.00;102483.31;5027022;28;20016;-64
2023/02/20 00:20:51;;;;;;;;;;;;;;;5.82;100.00;102478.03;5017179;28;20004;-66
2023/02/20 00:23:17;;;;;;;;;;;;;;;5.83;100.00;102469.31;5029076;28;20608;-66
2023/02/20 00:25:43;;;;;;;;;;;;;;;5.87;100.00;102457.81;5019488;28;19924;-65
2023/02/20 00:28:10;;;;;;;;;;;;;;;5.86;100.00;102459.59;5025269;28;19928;-65
2023/02/20 00:30:36;;;;;;;;;;;;;;;5.88;100.00;102462.94;5017117;28;19925;-65
2023/02/20 00:33:03;;;;;;;;;;;;;;;5.86;100.00;102466.53;5032339;28;20587;-65
2023/02/20 00:35:29;;;;;;;;;;;;;;;5.85;100.00;102452.66;5025100;28;20011;-64
2023/02/20 00:37:55;;;;;;;;;;;;;;;5.87;100.00;102455.22;5023851;28;20328;-64
2023/02/20 00:40:23;;;;;;;;;;;;;;;5.84;100.00;102443.19;5030122;28;20043;-65
2023/02/20 00:42:50;;;;;;;;;;;;;;;5.85;100.00;102438.81;5023475;28;19925;-66
2023/02/20 00:45:17;;;;;;;;;;;;;;;5.85;100.00;102444.03;5023300;28;19999;-65
2023/02/20 00:47:43;;;;;;;;;;;;;;;5.82;100.00;102437.22;5027586;28;19925;-64
2023/02/20 00:50:11;;;;;;;;;;;;;;;5.85;100.00;102447.47;5023099;28;19935;-65
2023/02/20 00:52:41;;;;;;;;;;;;;;;5.86;100.00;102435.28;5031653;28;19949;-65
2023/02/20 00:55:07;;;;;;;;;;;;;;;5.87;100.00;102430.00;5028929;28;19924;-64
2023/02/20 00:57:33;;;;;;;;;;;;;;;5.83;100.00;102419.81;5024660;28;20024;-65
2023/02/20 01:00:00;;;;;;;;;;;;;;;5.79;100.00;102421.72;5019480;28;20305;-64
2023/02/20 01:02:26;;;;;;;;;;;;;;;5.81;100.00;102421.66;5029262;28;20706;-64
2023/02/20 01:04:52;;;;;;;;;;;;;;;5.81;100.00;102421.66;5026761;28;19971;-65
2023/02/20 01:07:19;;;;;;;;;;;;;;;5.82;100.00;102415.53;5031523;28;19964;-65
2023/02/20 01:09:45;;;;;;;;;;;;;;;5.83;100.00;102406.81;5034602;28;19978;-67
2023/02/20 01:12:11;;;;;;;;;;;;;;;5.81;100.00;102390.41;5034179;28;20609;-65
2023/02/20 01:14:38;;;;;;;;;;;;;;;5.80;100.00;102400.00;5034447;28;19931;-66
2023/02/20 01:17:04;;;;;;;;;;;;;;;5.82;100.00;102402.50;5025054;28;19983;-66
2023/02/20 01:19:30;;;;;;;;;;;;;;;5.77;100.00;102394.09;5032584;28;19925;-65
2023/02/20 01:21:57;;;;;;;;;;;;;;;5.79;100.00;102387.03;5027496;28;20677;-65
2023/02/20 01:24:23;;;;;;;;;;;;;;;5.79;100.00;102400.06;5021562;28;19924;-64
2023/02/20 01:26:49;;;;;;;;;;;;;;;5.76;100.00;102390.63;5030391;28;19932;-64
2023/02/20 01:29:16;;;;;;;;;;;;;;;5.82;100.00;102386.88;5027567;28;19925;-63
2023/02/20 01:31:46;;;;;;;;;;;;;;;5.82;100.00;102379.06;5032329;28;19929;-64
2023/02/20 01:34:13;;;;;;;;;;;;;;;5.81;100.00;102366.97;5022490;28;20325;-65
2023/02/20 01:36:44;;;;;;;;;;;;;;;5.79;100.00;102358.41;5020724;28;19961;-66
2023/02/20 01:39:10;;;;;;;;;;;;;;;5.81;100.00;102348.75;5026420;28;19939;-64
2023/02/20 01:41:37;;;;;;;;;;;;;;;5.77;100.00;102340.25;5026239;28;19925;-64
2023/02/20 01:44:03;;;;;;;;;;;;;;;5.78;100.00;102346.28;5027010;28;19925;-65
2023/02/20 01:46:29;;;;;;;;;;;;;;;5.74;100.00;102341.25;5028008;28;19932;-65
2023/02/20 01:48:59;;;;;;;;;;;;;;;5.74;100.00;102335.19;5021798;28;20019;-65
2023/02/20 01:51:26;;;;;;;;;;;;;;;5.76;100.00;102328.13;4992846;28;20152;-63
2023/02/20 01:53:53;;;;;;;;;;;;;;;5.77;100.00;102331.59;5037053;28;19925;-63
2023/02/20 01:56:19;;;;;;;;;;;;;;;5.74;100.00;102323.03;5029372;28;19925;-63
2023/02/20 01:58:48;;;;;;;;;;;;;;;5.73;100.00;102323.94;5022232;28;19920;-64
2023/02/20 02:01:14;;;;;;;;;;;;;;;5.74;100.00;102317.81;5028446;28;20262;-64
2023/02/20 02:03:44;;;;;;;;;;;;;;;5.75;100.00;102323.84;5031837;28;20015;-64
2023/02/20 02:06:12;;;;;;;;;;;;;;;5.79;100.00;102329.75;5050009;28;19928;-62
2023/02/20 02:08:41;;;;;;;;;;;;;;;5.78;100.00;102331.50;5019401;28;19925;-63
2023/02/20 02:11:08;;;;;;;;;;;;;;;5.79;100.00;102327.16;5040147;28;20359;-63
2023/02/20 02:13:36;;;;;;;;;;;;;;;5.81;100.00;102327.91;5032487;28;19924;-64
2023/02/20 02:16:06;;;;;;;;;;;;;;;5.79;100.00;102312.34;5022642;28;19929;-64
2023/02/20 02:18:43;;;;;;;;;;;;;;;5.79;100.00;102314.97;5037443;28;19928;-64
2023/02/20 02:21:28;;;;;;;;;;;;;;;5.78;100.00;102317.63;5021840;28;19932;-64
2023/02/20 02:24:00;;;;;;;;;;;;;;;5.75;100.00;102311.66;5030719;28;19925;-64
2023/02/20 02:26:30;;;;;;;;;;;;;;;5.72;100.00;102306.63;5026572;28;20352;-64
2023/02/20 02:28:59;;;;;;;;;;;;;;;5.70;100.00;102297.19;5034969;28;19944;-64
2023/02/20 02:31:44;;;;;;;;;;;;;;;5.71;100.00;102297.13;5028449;28;19925;-64
2023/02/20 02:34:31;;;;;;;;;;;;;;;5.65;100.00;102297.44;5032956;28;19929;-64
2023/02/20 02:37:02;;;;;;;;;;;;;;;5.62;100.00;102297.59;5035535;28;19929;-64
2023/02/20 02:39:34;;;;;;;;;;;;;;;5.65;100.00;102294.00;5038016;28;19931;-64
2023/02/20 02:42:00;;;;;;;;;;;;;;;5.62;100.00;102288.94;5032353;28;19921;-65
2023/02/20 02:44:34;;;;;;;;;;;;;;;5.66;100.00;102296.50;5026899;28;19928;-65
2023/02/20 02:47:06;;;;;;;;;;;;;;;5.65;100.00;102297.44;5031375;28;19920;-65
2023/02/20 02:49:45;;;;;;;;;;;;;;;5.69;100.00;102293.75;5035015;28;19932;-66
2023/02/20 02:52:12;;;;;;;;;;;;;;;5.68;100.00;102294.66;5036022;28;19924;-65
2023/02/20 02:54:58;;;;;;;;;;;;;;;5.68;100.00;102304.25;5023683;28;19933;-65
2023/02/20 02:57:27;;;;;;;;;;;;;;;5.68;100.00;102286.84;5025212;28;19921;-64
2023/02/20 03:00:13;;;;;;;;;;;;;;;5.71;100.00;102284.13;5021869;28;19925;-65
2023/02/20 03:02:47;;;;;;;;;;;;;;;5.69;100.00;102279.91;5045183;28;19920;-65
2023/02/20 03:05:17;;;;;;;;;;;;;;;5.80;100.00;102272.41;5023727;28;19925;-66
2023/02/20 03:07:44;;;;;;;;;;;;;;;5.79;100.00;102262.06;5026077;28;20358;-65
2023/02/20 03:10:19;;;;;;;;;;;;;;;5.83;100.00;102266.19;5040793;28;19970;-65
2023/02/20 03:12:49;;;;;;;;;;;;;;;5.85;100.00;102259.97;5021870;28;19975;-65
2023/02/20 03:15:33;;;;;;;;;;;;;;;5.83;100.00;102255.75;5041023;28;20366;-65
2023/02/20 03:18:13;;;;;;;;;;;;;;;5.87;100.00;102265.09;5027771;28;20032;-65
2023/02/20 03:20:44;;;;;;;;;;;;;;;5.84;100.00;102267.84;5035844;28;19967;-65
2023/02/20 03:23:14;;;;;;;;;;;;;;;5.84;100.00;102263.50;5037049;28;19928;-65
2023/02/20 03:25:48;;;;;;;;;;;;;;;5.83;100.00;102268.78;5027912;28;19928;-65
2023/02/20 03:28:21;;;;;;;;;;;;;;;5.86;100.00;102268.59;5024515;28;19924;-65
2023/02/20 03:30:47;;;;;;;;;;;;;;;5.85;100.00;102278.19;5033599;28;19920;-65
2023/02/20 03:44:24;;;;;;;;;;;;;;;5.93;100.00;102243.94;5046190;28;19933;-65
2023/02/20 03:46:52;;;;;;;;;;;;;;;5.86;100.00;102250.38;5026200;28;19921;-66
2023/02/20 03:52:06;;;;;;;;;;;;;;;5.88;100.00;102244.19;5026435;28;20060;-65
2023/02/20 03:54:34;;;;;;;;;;;;;;;5.89;100.00;102258.03;5024620;28;19928;-65
2023/02/20 03:57:08;;;;;;;;;;;;;;;5.87;100.00;102239.88;5022215;28;20003;-65
2023/02/20 03:59:37;;;;;;;;;;;;;;;5.92;100.00;102239.66;5045182;28;19924;-65
2023/02/20 04:02:07;;;;;;;;;;;;;;;5.98;100.00;102254.13;5034526;28;19992;-65
2023/02/20 04:04:37;;;;;;;;;;;;;;;5.99;100.00;102248.84;5033279;28;20011;-65
2023/02/20 04:07:06;;;;;;;;;;;;;;;5.99;100.00;102272.28;5034764;28;19955;-66
2023/02/20 04:09:33;;;;;;;;;;;;;;;6.02;100.00;102248.69;5025870;28;19921;-67
2023/02/20 04:12:05;;;;;;;;;;;;;;;6.04;100.00;102243.41;5042344;28;19925;-65
2023/02/20 04:14:32;;;;;;;;;;;;;;;6.06;100.00;102241.56;5031896;28;19947;-66
2023/02/20 04:17:01;;;;;;;;;;;;;;;6.08;100.00;102244.91;5034656;28;19979;-65
2023/02/20 04:19:27;;;;;;;;;;;;;;;6.11;100.00;102248.19;5040317;28;19943;-65
2023/02/20 04:21:55;;;;;;;;;;;;;;;6.12;100.00;102243.84;5021460;28;19936;-65
2023/02/20 04:24:25;;;;;;;;;;;;;;;6.14;100.00;102249.81;5032425;28;19921;-65
2023/02/20 04:26:52;;;;;;;;;;;;;;;6.20;100.00;102246.84;5016089;28;19928;-66
2023/02/20 04:29:19;;;;;;;;;;;;;;;6.24;100.00;102247.53;5027393;28;20810;-65
2023/02/20 04:31:45;;;;;;;;;;;;;;;6.23;100.00;102241.47;5028532;28;19921;-65
2023/02/20 04:34:12;;;;;;;;;;;;;;;6.27;100.00;102243.00;5044390;28;19925;-65
2023/02/20 04:36:38;;;;;;;;;;;;;;;6.27;100.00;102247.34;5027100;28;19924;-66
2023/02/20 04:39:04;;;;;;;;;;;;;;;6.27;100.00;102234.31;5025294;28;20304;-65
2023/02/20 04:41:30;;;;;;;;;;;;;;;6.27;100.00;102232.59;5035041;28;20282;-64
2023/02/20 04:46:42;;;;;;;;;;;;;;;6.29;100.00;102235.94;5041497;28;20277;-65
2023/02/20 04:49:08;;;;;;;;;;;;;;;6.33;100.00;102229.63;5028834;28;20312;-65
2023/02/20 04:51:35;;;;;;;;;;;;;;;6.36;100.00;102241.66;5028659;28;19921;-65
2023/02/20 04:54:01;;;;;;;;;;;;;;;6.38;100.00;102229.38;5021331;28;19928;-66
2023/02/20 04:56:27;;;;;;;;;;;;;;;6.34;100.00;102228.69;5045993;28;19925;-65
2023/02/20 04:58:54;;;;;;;;;;;;;;;6.40;100.00;102227.53;5044571;28;19935;-66
2023/02/20 05:01:20;;;;;;;;;;;;;;;6.44;100.00;102228.19;5025344;28;19921;-65
2023/02/20 05:03:46;;;;;;;;;;;;;;;6.45;100.00;102240.28;5028798;28;20012;-65
2023/02/20 05:06:13;;;;;;;;;;;;;;;6.43;100.00;102229.09;5025114;28;19970;-65
2023/02/20 05:08:39;;;;;;;;;;;;;;;6.46;100.00;102232.38;5037375;28;19935;-66
2023/02/20 05:11:06;;;;;;;;;;;;;;;6.44;100.00;102238.63;5037137;28;19921;-66
2023/02/20 05:13:32;;;;;;;;;;;;;;;6.49;100.00;102229.63;5028450;28;20281;-65
2023/02/20 05:15:58;;;;;;;;;;;;;;;6.52;100.00;102226.00;5034485;28;19925;-65
2023/02/20 05:18:25;;;;;;;;;;;;;;;6.52;100.00;102223.38;5024535;28;19933;-66
2023/02/20 05:23:37;;;;;;;;;;;;;;;6.60;100.00;102228.19;5030805;28;20339;-65
2023/02/20 05:26:07;;;;;;;;;;;;;;;6.59;100.00;102244.75;5035359;28;19928;-65
2023/02/20 05:28:33;;;;;;;;;;;;;;;6.60;100.00;102229.00;5011402;28;20285;-65
2023/02/20 05:31:00;;;;;;;;;;;;;;;6.61;100.00;102242.91;5030594;28;19925;-66
2023/02/20 05:33:26;;;;;;;;;;;;;;;6.65;100.00;102220.94;5027587;28;19921;-65
2023/02/20 05:35:52;;;;;;;;;;;;;;;6.67;100.00;102214.72;5031571;28;20008;-65
2023/02/20 05:38:19;;;;;;;;;;;;;;;6.66;100.00;102226.06;5043422;28;20706;-66
2023/02/20 05:40:45;;;;;;;;;;;;;;;6.72;100.00;102220.53;5039931;28;19932;-65
2023/02/20 05:43:11;;;;;;;;;;;;;;;6.68;100.00;102208.59;5032136;28;19924;-65
2023/02/20 05:45:38;;;;;;;;;;;;;;;6.70;100.00;102204.13;5030427;28;19921;-65
2023/02/20 05:48:04;;;;;;;;;;;;;;;6.74;100.00;102199.53;5024296;28;19928;-65
2023/02/20 05:50:30;;;;;;;;;;;;;;;6.77;100.00;102215.03;5040981;28;20365;-66
2023/02/20 05:52:57;;;;;;;;;;;;;;;6.78;100.00;102195.84;5037440;28;19924;-65
2023/02/20 05:55:23;;;;;;;;;;;;;;;6.77;100.00;102199.38;5038220;28;19921;-66
2023/02/20 05:57:49;;;;;;;;;;;;;;;6.80;100.00;102193.13;5030432;28;19924;-66
2023/02/20 06:00:16;;;;;;;;;;;;;;;6.83;100.00;102192.97;5027314;28;19921;-65
2023/02/20 06:02:42;;;;;;;;;;;;;;;6.83;100.00;102195.59;5017986;28;19997;-65
2023/02/20 06:05:08;;;;;;;;;;;;;;;6.84;100.00;102198.13;5035820;28;19951;-66
2023/02/20 06:07:35;;;;;;;;;;;;;;;6.88;100.00;102190.94;5035342;28;19983;-65
2023/02/20 06:10:02;;;;;;;;;;;;;;;6.87;100.00;102192.69;5023632;28;20049;-65
2023/02/20 06:12:29;;;;;;;;;;;;;;;6.88;100.00;102204.84;5031855;28;19929;-65
2023/02/20 06:14:55;;;;;;;;;;;;;;;6.95;100.00;102191.44;5023967;28;19974;-65
2023/02/20 06:17:21;;;;;;;;;;;;;;;6.93;100.00;102199.34;5037309;28;19921;-66
2023/02/20 06:19:48;;;;;;;;;;;;;;;6.96;100.00;102195.69;5032435;28;19925;-66
2023/02/20 06:22:15;;;;;;;;;;;;;;;6.95;100.00;102200.09;5030422;28;19929;-66
2023/02/20 06:24:46;;;;;;;;;;;;;;;6.98;100.00;102199.91;5028302;28;19925;-65
2023/02/20 06:27:13;;;;;;;;;;;;;;;6.97;100.00;102203.44;5020052;28;19967;-65
2023/02/20 06:29:39;;;;;;;;;;;;;;;7.02;100.00;102195.38;5025185;28;19951;-65
2023/02/20 06:32:05;;;;;;;;;;;;;;;7.01;100.00;102191.91;5031858;28;20274;-66
2023/02/20 06:34:32;;;;;;;;;;;;;;;6.99;100.00;102209.41;5035081;28;19925;-65
2023/02/20 06:37:01;;;;;;;;;;;;;;;7.00;100.00;102195.47;5038725;28;19931;-66
2023/02/20 06:39:28;;;;;;;;;;;;;;;7.00;100.00;102205.88;5040360;28;20023;-65
2023/02/20 06:41:55;;;;;;;;;;;;;;;7.07;100.00;102207.19;5025339;28;19929;-66
2023/02/20 06:44:21;;;;;;;;;;;;;;;7.09;100.00;102204.50;5020038;28;20400;-67
2023/02/20 06:46:48;;;;;;;;;;;;;;;7.06;100.00;102210.75;5031947;28;19921;-66
2023/02/20 06:49:14;;;;;;;;;;;;;;;7.09;100.00;102196.66;5024242;28;19983;-66
2023/02/20 06:51:41;;;;;;;;;;;;;;;7.08;100.00;102202.84;5033392;28;20354;-66
2023/02/20 06:54:10;;;;;;;;;;;;;;;7.07;100.00;102198.53;5027770;28;19921;-65
2023/02/20 06:56:36;;;;;;;;;;;;;;;7.05;100.00;102193.41;5007076;28;19928;-65
2023/02/20 06:59:04;;;;;;;;;;;;;;;7.13;100.00;102199.03;5028031;28;19931;-64
2023/02/20 07:01:37;;;;;;;;;;;;;;;7.11;100.00;102206.09;5036722;28;20356;-67
2023/02/20 07:04:04;;;;;;;;;;;;;;;7.17;100.00;102186.63;5038503;28;19925;-65
2023/02/20 07:06:31;;;;;;;;;;;;;;;7.21;100.00;102180.28;5021720;28;19924;-66
2023/02/20 07:08:57;;;;;;;;;;;;;;;7.15;100.00;102191.09;5030880;28;20008;-66
2023/02/20 07:11:23;;;;;;;;;;;;;;;7.17;100.00;102194.44;5010536;28;20505;-66
2023/02/20 07:13:50;;;;;;;;;;;;;;;7.20;100.00;102203.88;5039773;28;20372;-66
2023/02/20 07:16:16;;;;;;;;;;;;;;;7.28;100.00;102196.44;5028558;28;19971;-65
2023/02/20 07:18:43;;;;;;;;;;;;;;;7.25;100.00;102210.50;5037644;28;20008;-65
2023/02/20 07:21:09;;;;;;;;;;;;;;;7.23;100.00;102206.28;5041943;28;19931;-66
2023/02/20 07:23:36;;;;;;;;;;;;;;;7.28;100.00;102205.09;5027520;28;19931;-65
2023/02/20 07:26:02;;;;;;;;;;;;;;;7.30;100.00;102199.78;5035438;28;19925;-66
2023/02/20 07:28:28;;;;;;;;;;;;;;;7.32;100.00;102206.59;5026993;28;19944;-66
2023/02/20 07:30:55;;;;;;;;;;;;;;;7.33;100.00;102207.41;5027947;28;19925;-65
2023/02/20 07:33:21;;;;;;;;;;;;;;;7.31;100.00;102209.28;5038486;28;20376;-66
2023/02/20 07:35:47;;;;;;;;;;;;;;;7.32;100.00;102203.97;5030305;28;19927;-65
2023/02/20 07:38:14;;;;;;;;;;;;;;;7.30;100.00;102200.63;5019276;28;19924;-65
2023/02/20 07:40:40;;;;;;;;;;;;;;;7.34;100.00;102201.28;5025239;28;19928;-66
2023/02/20 07:43:07;;;;;;;;;;;;;;;7.37;100.00;102206.34;5040308;28;20409;-66
2023/02/20 07:45:33;;;;;;;;;;;;;;;7.38;100.00;102194.13;5025473;28;19942;-65
2023/02/20 07:47:59;;;;;;;;;;;;;;;7.43;100.00;102194.66;5033561;28;19925;-65
2023/02/20 07:50:26;;;;;;;;;;;;;;;7.40;100.00;102198.31;5022527;28;19924;-65
2023/02/20 07:52:52;;;;;;;;;;;;;;;7.39;100.00;102211.44;5027077;28;19929;-65
2023/02/20 07:55:18;;;;;;;;;;;;;;;7.41;100.00;102204.34;5035585;28;19925;-66
2023/02/20 07:57:46;;;;;;;;;;;;;;;7.41;100.00;102205.22;5032806;28;19928;-65
2023/02/20 08:00:13;;;;;;;;;;;;;;;7.46;100.00;102216.22;5032339;28;20348;-66
2023/02/20 08:02:39;;;;;;;;;;;;;;;7.46;100.00;102207.53;5008437;28;20342;-65
2023/02/20 08:05:06;;;;;;;;;;;;;;;7.45;100.00;102203.28;5014443;28;20427;-65
2023/02/20 08:07:32;;;;;;;;;;;;;;;7.49;100.00;102204.75;5040677;28;20010;-65
2023/02/20 08:09:58;;;;;;;;;;;;;;;7.45;100.00;102206.72;5028597;28;19929;-65
2023/02/20 08:12:25;;;;;;;;;;;;;;;7.47;100.00;102202.25;5035730;28;19928;-66
2023/02/20 08:14:52;;;;;;;;;;;;;;;7.47;100.00;102222.28;5031602;28;19924;-66
2023/02/20 08:17:18;;;;;;;;;;;;;;;7.53;100.00;102212.31;5020342;28;19931;-64
2023/02/20 08:19:44;;;;;;;;;;;;;;;7.60;100.00;102212.75;5025797;28;19927;-65
2023/02/20 08:22:11;;;;;;;;;;;;;;;7.52;100.00;102226.28;5026906;28;19929;-66
2023/02/20 08:24:37;;;;;;;;;;;;;;;7.55;100.00;102222.66;5037184;28;19929;-65
2023/02/20 08:27:04;;;;;;;;;;;;;;;7.56;100.00;102216.50;5025039;28;19927;-65
2023/02/20 08:29:31;;;;;;;;;;;;;;;7.58;100.00;102221.63;5037154;28;20475;-66
2023/02/20 08:31:57;;;;;;;;;;;;;;;7.55;100.00;102221.81;5020687;28;20019;-66
2023/02/20 08:34:24;;;;;;;;;;;;;;;7.56;100.00;102207.84;5026227;28;19931;-65
2023/02/20 08:36:50;;;;;;;;;;;;;;;7.57;100.00;102206.91;5033736;28;19930;-65
2023/02/20 08:39:16;;;;;;;;;;;;;;;7.62;100.00;102197.84;5025422;28;19979;-65
2023/02/20 08:41:44;;;;;;;;;;;;;;;7.59;100.00;102211.09;5036342;28;19925;-66
2023/02/20 08:44:11;;;;;;;;;;;;;;;7.62;100.00;102204.84;5027275;28;19972;-66
2023/02/20 08:46:37;;;;;;;;;;;;;;;7.63;100.00;102212.59;5023942;28;19921;-66
2023/02/20 08:49:03;;;;;;;;;;;;;;;7.68;100.00;102218.38;5015492;28;19962;-65
2023/02/20 08:51:30;;;;;;;;;;;;;;;7.65;100.00;102212.50;5040318;28;20377;-65
2023/02/20 08:53:56;;;;;;;;;;;;;;;7.64;100.00;102221.25;5033300;28;19925;-67
2023/02/20 08:56:22;;;;;;;;;;;;;;;7.69;100.00;102203.53;5030879;28;19925;-66
2023/02/20 08:58:49;;;;;;;;;;;;;;;7.76;100.00;102204.84;5037377;28;20055;-67
2023/02/20 09:01:15;;;;;;;;;;;;;;;7.77;100.00;102203.09;5023781;28;19929;-67
2023/02/20 09:03:42;;;;;;;;;;;;;;;7.66;100.00;102204.59;5032132;28;19924;-67
2023/02/20 09:06:09;;;;;;;;;;;;;;;7.72;100.00;102201.59;5021970;28;19925;-66
2023/02/20 09:08:35;;;;;;;;;;;;;;;7.71;100.00;102202.50;5042695;28;19925;-67
2023/02/20 09:11:02;;;;;;;;;;;;;;;7.75;100.00;102202.34;5029066;28;19932;-66
2023/02/20 09:13:28;;;;;;;;;;;;;;;7.77;100.00;102201.31;5029952;28;19994;-67
2023/02/20 09:15:55;;;;;;;;;;;;;;;7.83;100.00;102205.31;5050063;28;19993;-66
2023/02/20 09:18:21;;;;;;;;;;;;;;;7.79;100.00;102209.88;5036222;28;20300;-67
2023/02/20 09:20:48;;;;;;;;;;;;;;;7.85;100.00;102206.88;5038994;28;20367;-66
2023/02/20 09:23:14;;;;;;;;;;;;;;;7.88;100.00;102190.19;5032878;28;19925;-65
2023/02/20 09:25:41;;;;;;;;;;;;;;;7.90;100.00;102196.16;5037153;28;19931;-66
2023/02/20 09:28:07;;;;;;;;;;;;;;;7.96;100.00;102187.94;5028660;28;20016;-66
2023/02/20 09:30:34;;;;;;;;;;;;;;;7.92;100.00;102182.06;5027494;28;19920;-66
2023/02/20 09:33:00;;;;;;;;;;;;;;;8.06;100.00;102193.44;5029293;28;19974;-66
2023/02/20 09:35:28;;;;;;;;;;;;;;;8.05;100.00;102171.66;5034222;28;19975;-66
2023/02/20 09:37:54;;;;;;;;;;;;;;;7.96;100.00;102176.63;5034780;28;19928;-65
2023/02/20 09:40:22;;;;;;;;;;;;;;;8.05;100.00;102182.13;5025237;28;19932;-66
2023/02/20 09:43:00;;;;;;;;;;;;;;;8.01;100.00;102179.81;5029469;28;19924;-66
2023/02/20 09:45:30;;;;;;;;;;;;;;;8.03;100.00;102164.88;5040502;28;19928;-65
2023/02/20 09:47:59;;;;;;;;;;;;;;;8.10;100.00;102167.00;5022997;28;19924;-66
2023/02/20 09:50:34;;;;;;;;;;;;;;;8.13;100.00;102176.41;5037634;28;19921;-65
2023/02/20 09:53:22;;;;;;;;;;;;;;;8.24;100.00;102179.19;5021632;28;19975;-66
2023/02/20 09:55:49;;;;;;;;;;;;;;;8.22;100.00;102168.00;5042233;28;19932;-66
2023/02/20 09:58:26;;;;;;;;;;;;;;;8.20;100.00;102192.56;5026252;28;19935;-66
2023/02/20 10:00:57;;;;;;;;;;;;;;;8.20;100.00;102175.09;5037185;28;20266;-66
2023/02/20 10:03:23;;;;;;;;;;;;;;;8.15;100.00;102166.69;5026831;28;19921;-65
2023/02/20 10:05:49;;;;;;;;;;;;;;;8.12;100.00;102159.91;5024507;28;19947;-66
2023/02/20 10:08:18;;;;;;;;;;;;;;;8.17;100.00;102169.22;5039642;28;20463;-65
2023/02/20 10:10:47;;;;;;;;;;;;;;;8.18;100.00;102170.91;5021488;28;20459;-66
2023/02/20 10:13:31;;;;;;;;;;;;;;;8.20;100.00;102175.09;5036433;28;19967;-66
2023/02/20 10:16:03;;;;;;;;;;;;;;;8.12;100.00;102183.41;5028148;28;19927;-65
2023/02/20 10:18:36;;;;;;;;;;;;;;;8.09;100.00;102180.16;5029653;28;19932;-66
2023/02/20 10:21:08;;;;;;;;;;;;;;;8.18;100.00;102182.19;5030213;28;20558;-66
2023/02/20 10:23:51;;;;;;;;;;;;;;;8.21;100.00;102179.41;5035872;28;19920;-65
2023/02/20 10:26:36;;;;;;;;;;;;;;;8.15;100.00;102185.00;5029066;28;20174;-67
2023/02/20 10:29:21;;;;;;;;;;;;;;;8.17;100.00;102185.72;5035158;28;19960;-65
2023/02/20 10:32:00;;;;;;;;;;;;;;;8.15;100.00;102195.44;5030902;28;19932;-65
2023/02/20 10:34:48;;;;;;;;;;;;;;;8.22;100.00;102190.69;5031877;28;19928;-65
2023/02/20 10:37:20;;;;;;;;;;;;;;;8.18;100.00;102195.28;5042128;28;20425;-65
2023/02/20 10:39:54;;;;;;;;;;;;;;;8.14;100.00;102196.41;5028846;28;19925;-65
2023/02/20 10:42:29;;;;;;;;;;;;;;;8.13;100.00;102199.94;5041446;28;19975;-65
2023/02/20 10:45:00;;;;;;;;;;;;;;;8.23;100.00;102205.41;5029278;28;19933;-66
2023/02/20 10:47:41;;;;;;;;;;;;;;;8.25;100.00;102206.16;5030325;28;20320;-65
2023/02/20 10:50:14;;;;;;;;;;;;;;;8.23;100.00;102206.28;5029076;28;19960;-65
2023/02/20 10:52:45;;;;;;;;;;;;;;;8.18;100.00;102221.41;5038413;28;20341;-66
2023/02/20 10:55:20;;;;;;;;;;;;;;;8.25;100.00;102211.38;5041576;28;19928;-65
2023/02/20 10:57:49;;;;;;;;;;;;;;;8.21;100.00;102200.31;5028694;28;19929;-66
2023/02/20 11:00:24;;;;;;;;;;;;;;;8.20;100.00;102209.06;5026960;28;19924;-65
2023/02/20 11:02:56;;;;;;;;;;;;;;;8.28;100.00;102208.59;5030569;28;20035;-67
2023/02/20 11:05:24;;;;;;;;;;;;;;;8.29;100.00;102191.97;5033232;28;20029;-66
2023/02/20 11:07:50;;;;;;;;;;;;;;;8.25;100.00;102180.88;5033066;28;19924;-65
2023/02/20 11:10:16;;;;;;;;;;;;;;;8.30;100.00;102196.25;5035883;28;19928;-66
2023/02/20 11:12:43;;;;;;;;;;;;;;;8.32;100.00;102204.84;5030458;28;19978;-66
2023/02/20 11:15:11;;;;;;;;;;;;;;;8.26;100.00;102200.00;5031161;28;19952;-66
2023/02/20 11:17:38;;;;;;;;;;;;;;;8.24;100.00;102180.97;5040039;28;19921;-66
2023/02/20 11:20:25;;;;;;;;;;;;;;;8.27;100.00;102167.69;5032229;28;19921;-65
2023/02/20 11:22:51;;;;;;;;;;;;;;;8.32;100.00;102173.47;5042802;28;19932;-67
2023/02/20 11:25:19;;;;;;;;;;;;;;;8.37;100.00;102188.84;5040142;28;20282;-66
2023/02/20 11:27:46;;;;;;;;;;;;;;;8.37;100.00;102158.34;5036887;28;19921;-66
2023/02/20 11:30:18;;;;;;;;;;;;;;;8.37;100.00;102147.03;5028261;28;20023;-66
2023/02/20 11:32:46;;;;;;;;;;;;;;;8.37;100.00;102157.47;5026464;28;20282;-66
2023/02/20 11:35:19;;;;;;;;;;;;;;;8.40;100.00;102155.50;5040906;28;19999;-65
2023/02/20 11:37:46;;;;;;;;;;;;;;;8.40;100.00;102147.66;5027392;28;20664;-66
2023/02/20 11:40:29;;;;;;;;;;;;;;;8.39;100.00;102132.06;5038310;28;19956;-66
2023/02/20 11:43:08;;;;;;;;;;;;;;;8.42;100.00;102145.81;5037224;28;20360;-67
2023/02/20 11:45:34;;;;;;;;;;;;;;;8.39;100.00;102132.94;5026774;28;19921;-66
2023/02/20 11:48:06;;;;;;;;;;;;;;;8.43;100.00;102160.59;5028797;28;19928;-67
2023/02/20 11:50:43;;;;;;;;;;;;;;;8.52;100.00;102128.59;5037619;28;19924;-66
2023/02/20 11:53:28;;;;;;;;;;;;;;;8.48;100.00;102095.72;5022362;28;19925;-66
2023/02/20 11:56:11;;;;;;;;;;;;;;;8.42;100.00;102100.53;5023573;28;19924;-67
2023/02/20 11:58:39;;;;;;;;;;;;;;;8.46;100.00;102134.22;5027612;28;19931;-66
2023/02/20 12:01:06;;;;;;;;;;;;;;;8.52;100.00;102144.28;5026393;28;19921;-65
2023/02/20 12:03:33;;;;;;;;;;;;;;;8.55;100.00;102130.19;5026626;28;19925;-66
2023/02/20 12:06:18;;;;;;;;;;;;;;;8.58;100.00;102122.13;5030230;28;19920;-66
2023/02/20 12:08:48;;;;;;;;;;;;;;;8.52;100.00;102117.28;5040135;28;20007;-65
2023/02/20 12:11:16;;;;;;;;;;;;;;;8.55;100.00;102126.72;5025491;28;19975;-68
2023/02/20 12:13:43;;;;;;;;;;;;;;;8.49;100.00;102112.28;5027779;28;20400;-67
2023/02/20 12:16:22;;;;;;;;;;;;;;;8.51;100.00;102132.16;5025870;28;20301;-66
2023/02/20 12:19:12;;;;;;;;;;;;;;;8.50;100.00;102120.00;5036533;28;19960;-65
2023/02/20 12:21:53;;;;;;;;;;;;;;;8.54;100.00;102140.72;5022382;28;19925;-66
2023/02/20 12:24:25;;;;;;;;;;;;;;;8.59;100.00;102121.19;5041988;28;20015;-66
2023/02/20 12:26:54;;;;;;;;;;;;;;;8.65;100.00;102119.94;5022333;28;19925;-66
2023/02/20 12:29:29;;;;;;;;;;;;;;;8.70;100.00;102137.00;5031555;28;19921;-66
2023/02/20 12:31:59;;;;;;;;;;;;;;;8.71;100.00;102164.84;5036636;28;19928;-66
2023/02/20 12:34:32;;;;;;;;;;;;;;;8.74;100.00;102144.63;5009896;28;20458;-65
2023/02/20 12:37:06;;;;;;;;;;;;;;;8.71;100.00;102141.28;5032783;28;19933;-65
2023/02/20 12:39:39;;;;;;;;;;;;;;;8.68;100.00;102140.66;5030126;28;19928;-67
2023/02/20 12:42:12;;;;;;;;;;;;;;;8.76;100.00;102127.94;5024286;28;19928;-66
2023/02/20 12:44:38;;;;;;;;;;;;;;;8.78;100.00;102130.41;5038255;28;20593;-66
2023/02/20 12:47:20;;;;;;;;;;;;;;;8.80;100.00;102118.94;5031958;28;19921;-66
2023/02/20 12:50:05;;;;;;;;;;;;;;;8.80;100.00;102121.53;5024015;28;20015;-66
2023/02/20 12:52:34;;;;;;;;;;;;;;;8.81;100.00;102127.59;5042603;28;20002;-65
2023/02/20 12:55:14;;;;;;;;;;;;;;;8.85;100.00;102129.06;5043210;28;20428;-65
2023/02/20 12:57:52;;;;;;;;;;;;;;;8.88;100.00;102129.72;5043009;28;20399;-66
2023/02/20 13:00:24;;;;;;;;;;;;;;;8.93;100.00;102129.38;5034914;28;20008;-67
2023/02/20 13:02:54;;;;;;;;;;;;;;;8.91;100.00;102111.16;5022986;28;19976;-66
2023/02/20 13:05:22;;;;;;;;;;;;;;;8.90;100.00;102106.88;5038322;28;19921;-65